Rubin Power — 3FNG6 — position and weather

sailwx.info

Track history (hours):
 
Tides and Currents Weather Stations Pressure Air Temp Water Temp Dewpoint Dewpoint Depression Visibility Wind Speed Wind Dir Waves Ship Positions

Rubin Power

Last reported at 2015-Aug-25 16:34 UTC. Time now 2015-Aug-28 02:19 UTC.
Position S 29°40' E 031°30'.

Length 218.7 m; beam 32.2 m.

Type: Cargo ship. MMSI: 356808000.

Date/timePositionNaut miles runAvg speedWind from/ knotsBaromVisibWave heightAir tempDewpointWater temp
2015-Aug-25 16:34S 29°40' E 031°30'10 9.8
2015-Aug-25 15:34S 29°46' E 031°21'10 9.8
2015-Aug-25 14:34S 29°51' E 031°11'2 2.3
2015-Aug-25 13:34S 29°52' E 031°08'0 0.2
2015-Aug-25 12:34S 29°52' E 031°08'5 5.0
2015-Aug-25 11:34S 29°57' E 031°08'1 1.2
2015-Aug-25 10:34S 29°55' E 031°08'2 2.4
2015-Aug-25 09:34S 29°53' E 031°07'2 1.9
2015-Aug-25 08:34S 29°54' E 031°09'2 2.3
2015-Aug-25 07:34S 29°57' E 031°08'1 1.5
2015-Aug-25 06:34S 29°55' E 031°09'1 0.7
2015-Aug-25 05:34S 29°55' E 031°09'9 9.1
2015-Aug-25 04:34S 30°03' E 031°03'1211.4
2015-Aug-25 03:29S 30°14' E 030°58'362 9.0
2015-Aug-23 11:11S 34°11' E 025°34'  
Track history (hours):
 
Tides and Currents Weather Stations Pressure Air Temp Water Temp Dewpoint Dewpoint Depression Visibility Wind Speed Wind Dir Waves Ship Positions

Rubin Power

Last reported at 2015-Aug-25 16:34 UTC. Time now 2015-Aug-28 02:19 UTC.
Position S 29°40' E 031°30'.

Length 218.7 m; beam 32.2 m.

Type: Cargo ship. MMSI: 356808000.

Date/timePositionNaut miles runAvg speedWind from/ knotsBaromVisibWave heightAir tempDewpointWater temp
2015-Aug-25 16:34S 29°40' E 031°30'10 9.8
2015-Aug-25 15:34S 29°46' E 031°21'10 9.8
2015-Aug-25 14:34S 29°51' E 031°11'2 2.3
2015-Aug-25 13:34S 29°52' E 031°08'0 0.2
2015-Aug-25 12:34S 29°52' E 031°08'5 5.0
2015-Aug-25 11:34S 29°57' E 031°08'1 1.2
2015-Aug-25 10:34S 29°55' E 031°08'2 2.4
2015-Aug-25 09:34S 29°53' E 031°07'2 1.9
2015-Aug-25 08:34S 29°54' E 031°09'2 2.3
2015-Aug-25 07:34S 29°57' E 031°08'1 1.5
2015-Aug-25 06:34S 29°55' E 031°09'1 0.7
2015-Aug-25 05:34S 29°55' E 031°09'9 9.1
2015-Aug-25 04:34S 30°03' E 031°03'1211.4
2015-Aug-25 03:29S 30°14' E 030°58'362 9.0
2015-Aug-23 11:11S 34°11' E 025°34'  

Dump ship's entire track history